createdAt,value
2018-07-15T05:05:06.609Z,18.68
2018-07-15T05:10:16.702Z,18.85
2018-07-15T05:15:20.036Z,19.06
2018-07-15T05:20:26.530Z,19.08
2018-07-15T05:25:29.859Z,19.06
2018-07-15T05:30:40.693Z,19.14
2018-07-15T05:35:44.024Z,19.21
2018-07-15T05:41:02.018Z,19.25
2018-07-15T05:46:05.347Z,19.34
2018-07-15T05:51:09.444Z,19.44
2018-07-15T05:56:12.784Z,19.58
2018-07-15T06:01:16.879Z,19.75
2018-07-15T06:06:20.234Z,19.86
2018-07-15T06:11:24.323Z,20.00
2018-07-15T06:16:27.651Z,20.00
2018-07-15T06:21:30.989Z,20.22
2018-07-15T06:26:35.078Z,20.46
2018-07-15T06:31:38.411Z,20.58
2018-07-15T06:36:41.754Z,20.78
2018-07-15T06:41:45.870Z,20.88
2018-07-15T06:46:50.149Z,20.92
2018-07-15T06:51:53.474Z,21.02
2018-07-15T06:56:56.800Z,21.14
2018-07-15T07:02:00.168Z,21.29
2018-07-15T07:07:03.497Z,21.48
2018-07-15T07:12:06.822Z,21.65
2018-07-15T07:17:10.158Z,21.84
2018-07-15T07:22:13.510Z,22.11
2018-07-15T07:27:20.755Z,22.20
2018-07-15T07:32:24.090Z,22.30
2018-07-15T07:37:27.423Z,22.40
2018-07-15T07:42:31.527Z,22.47
2018-07-15T07:47:34.858Z,22.52
2018-07-15T07:52:38.952Z,22.65
2018-07-15T07:57:42.301Z,22.90
2018-07-15T08:02:45.626Z,22.92
2018-07-15T08:07:48.955Z,23.08
2018-07-15T08:12:52.279Z,23.26
2018-07-15T08:17:55.610Z,23.24
2018-07-15T08:22:58.939Z,23.42
2018-07-15T08:28:02.276Z,23.42
2018-07-15T08:33:06.415Z,23.66
2018-07-15T08:38:09.748Z,23.73
2018-07-15T08:43:13.092Z,23.70
2018-07-15T08:48:27.356Z,23.58
2018-07-15T08:53:30.690Z,23.84
2018-07-15T08:58:34.022Z,23.87
2018-07-15T09:03:37.346Z,23.96
2018-07-15T09:08:41.455Z,23.99
2018-07-15T09:13:45.568Z,23.98
2018-07-15T09:18:48.894Z,23.83
2018-07-15T09:23:52.407Z,23.98
2018-07-15T09:28:55.739Z,24.16
2018-07-15T09:33:59.065Z,24.33
2018-07-15T09:39:03.165Z,24.48
2018-07-15T09:44:06.491Z,24.57
2018-07-15T09:49:09.828Z,24.62
2018-07-15T09:54:13.950Z,24.64
2018-07-15T09:59:18.329Z,24.78
2018-07-15T10:04:22.174Z,24.85
2018-07-15T10:09:25.535Z,24.90
2018-07-15T10:14:29.898Z,24.92
2018-07-15T10:19:33.373Z,25.11
2018-07-15T10:24:36.755Z,25.21
2018-07-15T10:29:40.698Z,25.27
2018-07-15T10:34:44.508Z,25.35
2018-07-15T10:40:01.984Z,25.30
2018-07-15T10:45:06.081Z,25.46
2018-07-15T10:50:09.431Z,25.64
2018-07-15T10:55:13.527Z,25.75
2018-07-15T11:00:16.880Z,25.68
2018-07-15T11:05:20.982Z,25.70
2018-07-15T11:10:55.502Z,25.66
2018-07-15T11:15:58.836Z,25.57
2018-07-15T11:21:02.167Z,25.63
2018-07-15T11:26:06.270Z,25.79
2018-07-15T11:31:09.773Z,26.05
2018-07-15T11:36:13.215Z,26.17
2018-07-15T11:41:18.020Z,26.32
2018-07-15T11:46:21.373Z,26.44
2018-07-15T11:51:24.702Z,26.55
2018-07-15T11:56:28.811Z,26.69
2018-07-15T12:01:32.154Z,26.67
2018-07-15T12:06:35.635Z,26.87
2018-07-15T12:11:38.994Z,27.14
2018-07-15T12:16:42.395Z,27.43
2018-07-15T12:21:45.701Z,27.24
2018-07-15T12:26:49.803Z,27.00
2018-07-15T12:31:53.147Z,27.15
2018-07-15T12:36:57.554Z,27.09
2018-07-15T12:42:01.792Z,26.88
2018-07-15T12:47:05.141Z,27.12
2018-07-15T12:52:08.486Z,27.39
2018-07-15T12:57:11.815Z,27.51
2018-07-15T13:02:15.157Z,27.72
2018-07-15T13:07:18.489Z,28.08
2018-07-15T13:12:22.583Z,27.93
2018-07-15T13:17:25.917Z,28.09
2018-07-15T13:22:30.018Z,28.01
2018-07-15T13:27:33.353Z,27.92
2018-07-15T13:32:36.683Z,27.87
2018-07-15T13:38:00.330Z,27.82
2018-07-15T13:43:03.662Z,27.59
2018-07-15T13:48:06.996Z,27.21
2018-07-15T13:53:10.340Z,26.94
2018-07-15T13:58:13.675Z,26.86
2018-07-15T14:03:17.016Z,26.74
2018-07-15T14:08:20.394Z,26.49
2018-07-15T14:13:23.727Z,25.56
2018-07-15T14:18:27.066Z,25.13
2018-07-15T14:23:31.185Z,24.37
2018-07-15T14:28:34.876Z,23.80
2018-07-15T14:33:38.394Z,22.86
2018-07-15T14:38:42.019Z,22.18
2018-07-15T14:43:45.369Z,22.08
2018-07-15T14:48:48.939Z,22.24
2018-07-15T14:53:52.300Z,22.26
2018-07-15T14:58:56.433Z,22.06
2018-07-15T15:04:00.550Z,21.99
2018-07-15T15:09:03.893Z,22.12
2018-07-15T15:14:07.234Z,22.39
2018-07-15T15:19:10.591Z,22.60
2018-07-15T15:24:13.927Z,23.05
2018-07-15T15:29:19.247Z,23.32
2018-07-15T15:34:22.604Z,23.25
2018-07-15T15:39:25.940Z,23.34
2018-07-15T15:44:29.623Z,23.81
2018-07-15T15:49:35.178Z,24.96
2018-07-15T15:54:38.517Z,26.32
2018-07-15T15:59:53.521Z,27.36
2018-07-15T16:04:56.864Z,28.29
2018-07-15T16:10:00.200Z,28.84
2018-07-15T16:15:04.293Z,29.32
2018-07-15T16:20:07.633Z,29.63
2018-07-15T16:25:10.970Z,29.06
2018-07-15T16:30:15.999Z,28.35
2018-07-15T16:35:19.333Z,27.85
2018-07-15T16:40:23.438Z,27.41
2018-07-15T16:45:26.779Z,27.34
2018-07-15T16:50:36.838Z,27.88
2018-07-15T16:55:40.228Z,28.38
2018-07-15T17:00:51.063Z,29.22
2018-07-15T17:05:54.483Z,29.47
2018-07-15T17:10:57.896Z,29.81
2018-07-15T17:16:01.238Z,30.18
2018-07-15T17:21:04.678Z,30.17
2018-07-15T17:26:11.170Z,29.98
2018-07-15T17:31:14.600Z,29.25
2018-07-15T17:36:18.692Z,28.47
2018-07-15T17:41:22.392Z,27.81
2018-07-15T17:46:25.727Z,27.28
2018-07-15T17:51:29.329Z,27.21
2018-07-15T17:56:32.798Z,27.05
2018-07-15T18:01:36.925Z,26.95
2018-07-15T18:06:41.282Z,26.64
2018-07-15T18:11:44.635Z,26.21
2018-07-15T18:16:48.241Z,25.94
2018-07-15T18:21:51.674Z,25.70
2018-07-15T18:26:55.051Z,25.52
2018-07-15T18:31:58.401Z,25.40
2018-07-15T18:37:01.750Z,25.22
2018-07-15T18:42:05.318Z,25.15
2018-07-15T18:47:08.645Z,25.04
2018-07-15T18:52:11.985Z,24.96
2018-07-15T18:57:16.109Z,24.86
2018-07-15T19:02:19.448Z,24.73
2018-07-15T19:07:23.558Z,24.60
2018-07-15T19:12:27.180Z,24.49
2018-07-15T19:17:30.560Z,24.39
2018-07-15T19:22:33.898Z,24.29
2018-07-15T19:27:37.259Z,24.20
2018-07-15T19:32:40.589Z,24.12
2018-07-15T19:37:43.926Z,24.07
2018-07-15T19:42:48.267Z,24.07
2018-07-15T19:47:51.617Z,24.06
2018-07-15T19:52:55.208Z,24.00
2018-07-15T19:57:59.327Z,23.93
2018-07-15T20:03:02.678Z,23.72
2018-07-15T20:08:06.007Z,23.59
2018-07-15T20:13:09.368Z,23.49
2018-07-15T20:18:12.698Z,23.40
2018-07-15T20:23:16.787Z,23.35
2018-07-15T20:28:20.110Z,23.30
2018-07-15T20:33:23.443Z,23.10
2018-07-15T20:38:26.771Z,23.07
2018-07-15T20:43:30.864Z,22.98
2018-07-15T20:48:35.195Z,22.85
2018-07-15T20:53:38.520Z,22.76
2018-07-15T20:58:41.862Z,22.72
2018-07-15T21:03:45.215Z,22.73
2018-07-15T21:08:48.552Z,22.74
2018-07-15T21:13:51.900Z,22.75
2018-07-15T21:18:56.023Z,22.72
2018-07-15T21:23:59.363Z,22.65
2018-07-15T21:29:02.812Z,22.61
2018-07-15T21:34:06.210Z,22.54
2018-07-15T21:39:09.534Z,22.49
2018-07-15T21:44:12.913Z,22.48
2018-07-15T21:49:16.238Z,22.40
2018-07-15T21:54:19.562Z,22.27
2018-07-15T21:59:42.178Z,22.24
2018-07-15T22:04:46.274Z,22.22
2018-07-15T22:10:01.357Z,22.21
2018-07-15T22:15:04.726Z,21.96
2018-07-15T22:20:08.835Z,21.25
2018-07-15T22:25:12.171Z,21.27
